Time;durP1;ratioP1;P1;durP2;ratioP2;P2;SDS_P1;SDS_P2;PMS_P1;PMS_P2;Temp;Humidity;BMP_temperature;BMP_pressure;BME280_temperature;BME280_humidity;BME280_pressure;Samples;Min_cycle;Max_cycle;Signal;HPM_P1;HPM_P2
2024/03/26 00:00:15;;;;;;;0.60;0.60;;;;;;;4.54;65.16;95017.00;29395;221;63012;-54
2024/03/26 00:00:46;;;;;;;0.50;0.50;;;;;;;4.55;64.11;95017.78;29395;239;63008;-54
2024/03/26 00:01:17;;;;;;;0.60;0.60;;;;;;;4.54;63.86;95014.31;29394;208;64020;-54
2024/03/26 00:01:49;;;;;;;0.60;0.60;;;;;;;4.53;63.89;95012.72;29395;364;63009;-70
2024/03/26 00:02:22;;;;;;;0.60;0.60;;;;;;;4.55;63.85;95018.59;29395;206;63005;-53
2024/03/26 00:02:53;;;;;;;0.60;0.60;;;;;;;4.54;65.45;95022.38;29395;258;63009;-53
2024/03/26 00:03:25;;;;;;;0.60;0.60;;;;;;;4.53;65.63;95034.22;29394;212;64009;-53
2024/03/26 00:03:56;;;;;;;0.60;0.60;;;;;;;4.54;65.25;95022.38;29395;252;63019;-54
2024/03/26 00:04:29;;;;;;;0.52;0.52;;;;;;;4.57;64.66;95015.59;29395;242;63005;-53
2024/03/26 00:05:01;;;;;;;0.60;0.60;;;;;;;4.57;64.35;95013.72;29395;240;63009;-54
2024/03/26 00:05:33;;;;;;;0.60;0.60;;;;;;;4.59;64.26;95014.22;29395;243;63004;-53
2024/03/26 00:06:04;;;;;;;0.60;0.60;;;;;;;4.59;64.46;95018.78;29395;218;63024;-53
2024/03/26 00:06:36;;;;;;;0.60;0.60;;;;;;;4.59;64.67;95016.09;29395;202;63004;-53
2024/03/26 00:07:07;;;;;;;0.60;0.60;;;;;;;4.58;64.46;95018.00;29395;205;63009;-53
2024/03/26 00:07:38;;;;;;;0.60;0.60;;;;;;;4.58;64.94;95018.00;29395;223;63004;-53
2024/03/26 00:08:10;;;;;;;0.60;0.60;;;;;;;4.57;65.17;95011.03;29395;233;63008;-53
2024/03/26 00:08:47;;;;;;;0.50;0.50;;;;;;;4.56;65.45;95019.38;29394;224;64009;-53
2024/03/26 00:09:18;;;;;;;0.50;0.50;;;;;;;4.56;65.74;95014.00;29395;207;63009;-53
2024/03/26 00:09:49;;;;;;;0.50;0.50;;;;;;;4.54;65.53;95021.56;29395;226;63005;-54
2024/03/26 00:10:21;;;;;;;0.60;0.60;;;;;;;4.54;65.54;95017.00;29395;239;63009;-54
2024/03/26 00:10:52;;;;;;;0.60;0.60;;;;;;;4.54;65.44;95019.69;29395;212;63005;-53
2024/03/26 00:11:24;;;;;;;0.60;0.60;;;;;;;4.53;65.48;95022.66;29394;209;64013;-53
2024/03/26 00:11:57;;;;;;;0.60;0.60;;;;;;;4.51;65.35;95022.97;29395;267;63017;-54
2024/03/26 00:12:28;;;;;;;0.60;0.60;;;;;;;4.50;65.25;95018.72;29395;202;63009;-53
2024/03/26 00:12:59;;;;;;;0.60;0.60;;;;;;;4.51;65.39;95020.28;29395;202;63004;-53
2024/03/26 00:13:30;;;;;;;0.60;0.60;;;;;;;4.50;65.65;95016.03;29395;293;63009;-53
2024/03/26 00:14:01;;;;;;;0.60;0.60;;;;;;;4.49;66.07;95014.44;29394;202;64009;-53
2024/03/26 00:14:32;;;;;;;0.60;0.60;;;;;;;4.50;66.57;95020.59;29395;208;63009;-53
2024/03/26 00:15:05;;;;;;;0.60;0.60;;;;;;;4.48;66.65;95023.59;29394;218;64002;-53
2024/03/26 00:15:36;;;;;;;0.60;0.60;;;;;;;4.47;67.64;95023.87;29395;204;63008;-53
2024/03/26 00:16:07;;;;;;;0.60;0.60;;;;;;;4.42;67.31;95027.47;29395;217;63004;-53
2024/03/26 00:16:38;;;;;;;0.50;0.50;;;;;;;4.40;68.47;95035.03;29394;222;64014;-53
2024/03/26 00:17:09;;;;;;;0.60;0.60;;;;;;;4.38;69.57;95039.91;29395;221;63005;-53
2024/03/26 00:17:41;;;;;;;0.50;0.50;;;;;;;4.35;69.68;95038.59;29395;215;63009;-54
2024/03/26 00:18:15;;;;;;;0.60;0.60;;;;;;;4.32;68.74;95031.13;29395;246;63005;-52
2024/03/26 00:18:46;;;;;;;0.60;0.60;;;;;;;4.32;68.37;95030.34;29395;254;63015;-53
2024/03/26 00:19:17;;;;;;;0.60;0.60;;;;;;;4.32;67.95;95025.78;29395;228;63005;-53
2024/03/26 00:19:49;;;;;;;0.60;0.60;;;;;;;4.31;68.35;95031.44;29394;246;64013;-53
2024/03/26 00:20:20;;;;;;;0.60;0.60;;;;;;;4.28;67.60;95023.97;29395;232;63012;-53
2024/03/26 00:20:51;;;;;;;0.57;0.57;;;;;;;4.27;67.44;95022.38;29395;274;63009;-53
2024/03/26 00:21:23;;;;;;;0.60;0.60;;;;;;;4.27;67.28;95022.38;29395;228;63014;-53
2024/03/26 00:21:56;;;;;;;0.60;0.60;;;;;;;4.27;67.46;95028.56;29394;210;64013;-52
2024/03/26 00:22:27;;;;;;;0.60;0.60;;;;;;;4.27;67.73;95022.38;29394;204;64009;-53
2024/03/26 00:22:59;;;;;;;0.60;0.60;;;;;;;4.27;68.28;95027.75;29395;198;63008;-53
2024/03/26 00:23:30;;;;;;;0.50;0.50;;;;;;;4.24;68.67;95029.13;29395;211;63009;-54
2024/03/26 00:24:01;;;;;;;0.60;0.60;;;;;;;4.24;70.83;95045.25;29395;199;63009;-53
2024/03/26 00:24:36;;;;;;;0.60;0.60;;;;;;;4.20;70.96;95040.78;29395;206;63005;-54
2024/03/26 00:25:08;;;;;;;0.50;0.50;;;;;;;4.18;70.00;95035.69;29394;210;64014;-54
2024/03/26 00:25:39;;;;;;;0.60;0.60;;;;;;;4.18;69.87;95040.28;29395;229;63005;-53
2024/03/26 00:26:11;;;;;;;0.60;0.60;;;;;;;4.18;69.86;95037.59;29395;198;63015;-52
2024/03/26 00:26:42;;;;;;;0.60;0.60;;;;;;;4.15;70.53;95038.22;29395;211;63005;-53
2024/03/26 00:27:13;;;;;;;0.60;0.60;;;;;;;4.11;72.32;95039.87;29395;282;63015;-53
2024/03/26 00:27:45;;;;;;;0.60;0.60;;;;;;;4.08;71.60;95043.16;29395;237;63005;-54
2024/03/26 00:28:16;;;;;;;0.60;0.60;;;;;;;4.06;71.29;95043.47;29395;251;63009;-52
2024/03/26 00:28:47;;;;;;;0.60;0.60;;;;;;;4.06;71.37;95048.81;29395;202;63004;-53
2024/03/26 00:29:20;;;;;;;0.57;0.57;;;;;;;4.03;71.27;95039.47;29394;250;64013;-53
2024/03/26 00:29:51;;;;;;;0.60;0.60;;;;;;;4.02;70.85;95037.88;29395;272;63004;-70
2024/03/26 00:30:22;;;;;;;0.60;0.60;;;;;;;4.02;70.82;95037.88;29395;232;63009;-53
2024/03/26 00:30:53;;;;;;;0.50;0.50;;;;;;;4.03;70.89;95036.00;29395;232;63004;-53
2024/03/26 00:31:24;;;;;;;0.60;0.60;;;;;;;4.02;71.07;95034.41;29395;205;63009;-53
2024/03/26 00:31:56;;;;;;;0.60;0.60;;;;;;;3.99;71.81;95038.47;29395;410;63005;-55
2024/03/26 00:32:27;;;;;;;0.60;0.60;;;;;;;3.96;71.79;95030.22;29395;358;63009;-53
2024/03/26 00:32:58;;;;;;;0.60;0.60;;;;;;;3.95;71.05;95026.72;29395;202;63005;-54
2024/03/26 00:33:29;;;;;;;0.60;0.60;;;;;;;3.95;71.00;95025.94;29395;286;63009;-54
2024/03/26 00:34:01;;;;;;;0.60;0.60;;;;;;;3.93;70.83;95031.59;29395;208;63007;-53
2024/03/26 00:34:34;;;;;;;0.70;0.70;;;;;;;3.93;70.89;95028.91;29394;301;64013;-53
2024/03/26 00:35:06;;;;;;;0.62;0.62;;;;;;;3.92;71.00;95027.31;29395;212;63005;-53
2024/03/26 00:35:37;;;;;;;0.60;0.60;;;;;;;3.91;72.10;95031.09;29395;337;63009;-53
2024/03/26 00:36:09;;;;;;;0.60;0.60;;;;;;;3.87;71.51;95030.09;29395;324;63004;-70
2024/03/26 00:36:40;;;;;;;0.60;0.60;;;;;;;3.86;71.07;95028.50;29395;197;63009;-53
2024/03/26 00:37:11;;;;;;;0.60;0.60;;;;;;;3.87;70.65;95024.72;29395;212;63004;-54
2024/03/26 00:37:45;;;;;;;0.60;0.60;;;;;;;3.88;70.99;95028.22;29395;199;63009;-54
2024/03/26 00:38:16;;;;;;;0.60;0.60;;;;;;;3.86;71.64;95027.72;29395;222;63004;-55
2024/03/26 00:38:48;;;;;;;0.60;0.60;;;;;;;3.84;70.99;95025.31;29394;237;64013;-53
2024/03/26 00:39:19;;;;;;;0.60;0.60;;;;;;;3.84;71.09;95022.63;29394;230;64009;-53
2024/03/26 00:39:51;;;;;;;0.60;0.60;;;;;;;3.83;71.92;95026.41;29395;202;63009;-54
2024/03/26 00:40:22;;;;;;;0.60;0.60;;;;;;;3.81;72.24;95028.59;29395;221;63005;-53
2024/03/26 00:40:53;;;;;;;0.60;0.60;;;;;;;3.79;72.11;95027.31;29395;233;63009;-53
2024/03/26 00:41:25;;;;;;;0.60;0.60;;;;;;;3.77;71.80;95024.94;29395;226;63005;-53
2024/03/26 00:41:56;;;;;;;0.60;0.60;;;;;;;3.76;71.43;95026.03;29395;256;63020;-54
2024/03/26 00:42:27;;;;;;;0.60;0.60;;;;;;;3.76;71.09;95017.97;29395;256;63007;-54
2024/03/26 00:42:58;;;;;;;0.60;0.60;;;;;;;3.76;71.66;95023.34;29395;224;63009;-53
2024/03/26 00:43:30;;;;;;;0.60;0.60;;;;;;;3.77;71.59;95029.50;29395;228;63004;-54
2024/03/26 00:44:01;;;;;;;0.55;0.55;;;;;;;3.76;72.04;95025.22;29394;202;64013;-54
2024/03/26 00:44:32;;;;;;;0.60;0.60;;;;;;;3.75;71.63;95027.09;29395;203;63004;-53
2024/03/26 00:45:04;;;;;;;0.60;0.60;;;;;;;3.75;71.19;95019.06;29394;201;64013;-53
2024/03/26 00:45:35;;;;;;;0.60;0.60;;;;;;;3.76;71.51;95015.28;29394;201;64015;-53
2024/03/26 00:46:06;;;;;;;0.60;0.60;;;;;;;3.76;71.70;95019.84;29395;202;63017;-54
2024/03/26 00:46:38;;;;;;;0.50;0.50;;;;;;;3.75;72.02;95016.37;29395;197;63005;-53
2024/03/26 00:47:12;;;;;;;0.60;0.60;;;;;;;3.75;71.90;95015.59;29395;222;63009;-53
2024/03/26 00:47:44;;;;;;;0.60;0.60;;;;;;;3.72;71.83;95016.97;29395;277;63005;-53
2024/03/26 00:48:16;;;;;;;0.60;0.60;;;;;;;3.70;71.62;95014.56;29395;221;63009;-53
2024/03/26 00:48:47;;;;;;;0.60;0.60;;;;;;;3.70;71.22;95008.41;29395;212;63005;-52
2024/03/26 00:49:18;;;;;;;0.55;0.55;;;;;;;3.70;71.42;95008.41;29395;226;63009;-53
2024/03/26 00:49:49;;;;;;;0.60;0.60;;;;;;;3.71;73.61;95020.75;29395;290;63004;-53
2024/03/26 00:50:21;;;;;;;0.60;0.60;;;;;;;3.69;72.87;95017.56;29394;235;64013;-53
2024/03/26 00:50:52;;;;;;;0.60;0.60;;;;;;;3.69;73.26;95013.00;29395;227;63004;-52
2024/03/26 00:51:23;;;;;;;0.60;0.60;;;;;;;3.69;72.64;95020.22;29395;222;63009;-53
2024/03/26 00:51:55;;;;;;;0.60;0.60;;;;;;;3.69;73.04;95012.19;29395;196;63004;-55
2024/03/26 00:52:28;;;;;;;0.60;0.60;;;;;;;3.70;73.10;95013.78;29395;327;63008;-53
2024/03/26 00:52:59;;;;;;;0.60;0.60;;;;;;;3.69;73.30;95012.19;29395;200;63010;-54
2024/03/26 00:53:30;;;;;;;0.60;0.60;;;;;;;3.65;73.40;95011.19;29395;313;63009;-54
2024/03/26 00:54:02;;;;;;;0.60;0.60;;;;;;;3.67;73.20;95004.44;29395;240;63005;-53
2024/03/26 00:54:33;;;;;;;0.60;0.60;;;;;;;3.66;73.15;95007.41;29394;216;64014;-53
2024/03/26 00:55:04;;;;;;;0.60;0.60;;;;;;;3.66;72.85;95010.09;29394;218;64009;-53
2024/03/26 00:55:36;;;;;;;0.60;0.60;;;;;;;3.65;73.25;95011.19;29395;197;63009;-53
2024/03/26 00:56:07;;;;;;;0.60;0.60;;;;;;;3.65;72.89;95005.81;29395;196;63005;-53
2024/03/26 00:56:38;;;;;;;0.57;0.57;;;;;;;3.63;73.32;95008.78;29395;211;63009;-54
2024/03/26 00:57:13;;;;;;;0.60;0.60;;;;;;;3.62;73.69;95001.03;29395;209;63005;-53
2024/03/26 00:57:46;;;;;;;0.60;0.60;;;;;;;3.60;74.59;95008.59;29395;323;63009;-53
2024/03/26 00:58:18;;;;;;;0.60;0.60;;;;;;;3.60;73.28;95003.22;29395;234;63011;-52
2024/03/26 00:58:49;;;;;;;0.60;0.60;;;;;;;3.58;74.37;95000.03;29395;209;63009;-53
2024/03/26 00:59:24;;;;;;;0.57;0.57;;;;;;;3.57;73.83;94995.75;29395;226;63004;-53
2024/03/26 00:59:55;;;;;;;0.60;0.60;;;;;;;3.58;73.41;94989.31;29395;207;63008;-53
2024/03/26 01:00:27;;;;;;;0.60;0.60;;;;;;;3.58;73.27;94994.66;29394;238;64008;-53
2024/03/26 01:01:05;;;;;;;0.60;0.60;;;;;;;3.57;73.03;94987.72;29395;204;63009;-53
2024/03/26 01:01:36;;;;;;;0.60;0.60;;;;;;;3.57;72.33;94982.34;29395;333;63005;-53
2024/03/26 01:02:07;;;;;;;0.60;0.60;;;;;;;3.58;73.18;94979.38;29395;233;63009;-54
2024/03/26 01:02:39;;;;;;;0.60;0.60;;;;;;;3.59;73.23;94985.53;29395;233;63005;-54
2024/03/26 01:03:10;;;;;;;0.60;0.60;;;;;;;3.59;73.74;94986.34;29395;204;63018;-53
2024/03/26 01:03:41;;;;;;;0.60;0.60;;;;;;;3.59;73.33;94980.16;29395;206;63015;-54
2024/03/26 01:04:13;;;;;;;0.60;0.60;;;;;;;3.60;73.89;94995.19;29395;218;63009;-53
2024/03/26 01:04:47;;;;;;;0.60;0.60;;;;;;;3.60;73.59;94989.81;29395;213;63005;-53
2024/03/26 01:05:19;;;;;;;0.60;0.60;;;;;;;3.61;73.62;94978.00;29395;211;63009;-52
2024/03/26 01:05:54;;;;;;;0.60;0.60;;;;;;;3.61;73.99;94981.47;29394;268;64009;-54
2024/03/26 01:06:25;;;;;;;0.60;0.60;;;;;;;3.61;73.95;94980.69;29394;227;64013;-53
2024/03/26 01:06:56;;;;;;;0.60;0.60;;;;;;;3.61;73.85;94972.63;29395;400;63004;-53
2024/03/26 01:07:28;;;;;;;0.60;0.60;;;;;;;3.62;73.81;94974.22;29395;210;63008;-53
2024/03/26 01:07:59;;;;;;;0.60;0.60;;;;;;;3.62;73.91;94979.59;29395;321;63011;-53
2024/03/26 01:08:31;;;;;;;0.60;0.60;;;;;;;3.63;74.06;94975.81;29395;237;63009;-53
2024/03/26 01:09:02;;;;;;;0.60;0.60;;;;;;;3.62;74.21;94968.84;29395;248;63007;-54
2024/03/26 01:09:33;;;;;;;0.60;0.60;;;;;;;3.63;73.76;94965.09;29395;214;63009;-53
2024/03/26 01:10:06;;;;;;;0.77;0.77;;;;;;;3.64;73.96;94970.16;29395;215;63005;-53
2024/03/26 01:10:37;;;;;;;0.60;0.60;;;;;;;3.66;74.26;94964.50;29394;199;64013;-70
2024/03/26 01:11:13;;;;;;;0.60;0.60;;;;;;;3.66;73.67;94967.19;29395;224;63010;-54
2024/03/26 01:11:46;;;;;;;0.60;0.60;;;;;;;3.66;73.91;94964.50;29395;236;63009;-53
2024/03/26 01:12:17;;;;;;;0.60;0.60;;;;;;;3.66;74.21;94959.12;29395;200;63005;-53
2024/03/26 01:12:52;;;;;;;0.60;0.60;;;;;;;3.64;73.51;94955.94;29395;225;63009;-53
2024/03/26 01:13:23;;;;;;;0.60;0.60;;;;;;;3.64;73.97;94967.47;29395;345;63004;-53
2024/03/26 01:13:55;;;;;;;0.60;0.60;;;;;;;3.65;74.38;94960.22;29395;219;63009;-54
2024/03/26 01:14:26;;;;;;;0.60;0.60;;;;;;;3.63;74.46;94957.84;29395;219;63004;-53
2024/03/26 01:14:57;;;;;;;0.60;0.60;;;;;;;3.64;74.35;94958.62;29395;209;63008;-53
2024/03/26 01:15:29;;;;;;;0.60;0.60;;;;;;;3.63;74.60;94962.41;29395;367;63016;-53
2024/03/26 01:16:00;;;;;;;0.60;0.60;;;;;;;3.63;74.47;94954.34;29394;259;64014;-70
2024/03/26 01:16:32;;;;;;;0.60;0.60;;;;;;;3.63;74.28;94957.03;29395;325;63005;-53
2024/03/26 01:17:03;;;;;;;0.60;0.60;;;;;;;3.64;74.46;94955.94;29395;230;63009;-53
2024/03/26 01:17:34;;;;;;;0.60;0.60;;;;;;;3.65;74.75;94957.53;29394;202;64009;-53
2024/03/26 01:18:05;;;;;;;0.60;0.60;;;;;;;3.65;74.86;94960.22;29394;221;64013;-53
2024/03/26 01:18:38;;;;;;;0.60;0.60;;;;;;;3.66;74.61;94959.12;29395;298;63005;-53
2024/03/26 01:19:09;;;;;;;0.60;0.60;;;;;;;3.65;74.62;94955.66;29395;238;63009;-53
2024/03/26 01:19:40;;;;;;;0.60;0.60;;;;;;;3.66;74.46;94959.12;29395;219;63005;-53
2024/03/26 01:20:15;;;;;;;0.60;0.60;;;;;;;3.66;74.15;94961.81;29395;235;63009;-53
2024/03/26 01:20:47;;;;;;;0.60;0.60;;;;;;;3.65;74.48;94969.06;29395;216;63004;-54
2024/03/26 01:21:18;;;;;;;0.60;0.60;;;;;;;3.64;75.41;94972.03;29395;203;63009;-53
2024/03/26 01:21:49;;;;;;;0.60;0.60;;;;;;;3.60;75.37;94974.50;29394;235;64009;-53
2024/03/26 01:22:20;;;;;;;0.60;0.60;;;;;;;3.58;75.05;94970.53;29395;210;63009;-53
2024/03/26 01:22:52;;;;;;;0.60;0.60;;;;;;;3.57;74.68;94974.31;29395;222;63007;-53
2024/03/26 01:23:23;;;;;;;0.60;0.60;;;;;;;3.56;74.28;94967.34;29395;202;63009;-53
2024/03/26 01:23:54;;;;;;;0.50;0.50;;;;;;;3.56;74.16;94970.84;29395;197;63005;-55
2024/03/26 01:24:26;;;;;;;0.60;0.60;;;;;;;3.56;74.12;94975.41;29395;197;63005;-53
2024/03/26 01:24:57;;;;;;;0.60;0.60;;;;;;;3.56;74.29;94970.03;29395;204;63005;-53
2024/03/26 01:25:28;;;;;;;0.60;0.60;;;;;;;3.54;74.56;94966.84;29395;232;63009;-53
2024/03/26 01:26:03;;;;;;;0.60;0.60;;;;;;;3.53;74.39;94973.31;29395;198;63005;-54
2024/03/26 01:26:34;;;;;;;0.60;0.60;;;;;;;3.52;74.26;94971.72;29394;197;64013;-53
2024/03/26 01:27:07;;;;;;;0.60;0.60;;;;;;;3.48;74.46;94973.38;29395;230;63005;-71
2024/03/26 01:27:38;;;;;;;0.60;0.60;;;;;;;3.45;74.18;94974.00;29395;274;63009;-53
2024/03/26 01:28:13;;;;;;;0.60;0.60;;;;;;;3.46;74.28;94980.97;29395;197;63004;-54
2024/03/26 01:28:45;;;;;;;0.60;0.60;;;;;;;3.47;74.66;94971.78;29395;219;63009;-53
2024/03/26 01:29:16;;;;;;;0.60;0.60;;;;;;;3.47;74.01;94974.47;29395;274;63004;-54
2024/03/26 01:29:47;;;;;;;0.60;0.60;;;;;;;3.47;74.12;94972.59;29395;208;63009;-53
2024/03/26 01:30:19;;;;;;;0.50;0.50;;;;;;;3.46;75.64;94981.75;29395;202;63007;-53
2024/03/26 01:30:50;;;;;;;0.60;0.60;;;;;;;3.43;75.70;94981.53;29395;216;63008;-52
2024/03/26 01:31:23;;;;;;;0.60;0.60;;;;;;;3.40;75.97;94982.12;29395;328;63009;-53
2024/03/26 01:31:54;;;;;;;0.60;0.60;;;;;;;3.37;75.95;94984.31;29394;203;64014;-53
2024/03/26 01:32:26;;;;;;;0.60;0.60;;;;;;;3.36;75.46;94981.91;29395;236;63008;-53
2024/03/26 01:32:58;;;;;;;0.60;0.60;;;;;;;3.35;76.74;94983.78;29394;236;64013;-53
2024/03/26 01:33:29;;;;;;;0.60;0.60;;;;;;;3.33;76.92;94977.94;29395;245;63005;-54
2024/03/26 01:34:04;;;;;;;0.60;0.60;;;;;;;3.32;76.62;94981.69;29395;197;63009;-54
2024/03/26 01:34:36;;;;;;;0.60;0.60;;;;;;;3.34;76.16;94978.72;29395;282;63005;-53
2024/03/26 01:35:11;;;;;;;0.60;0.60;;;;;;;3.34;76.08;94974.16;29395;209;63009;-53
2024/03/26 01:35:51;;;;;;;0.60;0.60;;;;;;;3.34;76.22;94974.16;29395;216;63004;-54
2024/03/26 01:36:23;;;;;;;0.60;0.60;;;;;;;3.33;75.59;94972.56;29416;210;64013;-53
2024/03/26 01:36:54;;;;;;;0.60;0.60;;;;;;;3.34;75.50;94970.69;29394;215;64009;-54
2024/03/26 01:37:25;;;;;;;0.60;0.60;;;;;;;3.34;75.30;94973.38;29395;309;63009;-54
2024/03/26 01:37:57;;;;;;;0.70;0.70;;;;;;;3.35;75.15;94965.03;29395;218;63004;-53
2024/03/26 01:38:28;;;;;;;0.60;0.60;;;;;;;3.37;75.67;94970.91;29395;204;63009;-53
2024/03/26 01:38:59;;;;;;;0.62;0.62;;;;;;;3.37;75.38;94968.22;29395;197;63005;-53
2024/03/26 01:39:30;;;;;;;0.60;0.60;;;;;;;3.37;75.61;94965.53;29395;212;63009;-53
2024/03/26 01:40:02;;;;;;;0.60;0.60;;;;;;;3.37;75.43;94962.84;29395;252;63005;-54
2024/03/26 01:40:35;;;;;;;0.60;0.60;;;;;;;3.37;75.32;94954.81;29395;236;63014;-53
2024/03/26 01:41:07;;;;;;;0.60;0.60;;;;;;;3.38;75.65;94958.28;29395;218;63005;-53
2024/03/26 01:41:39;;;;;;;0.52;0.52;;;;;;;3.37;75.97;94968.22;29395;261;63009;-54
2024/03/26 01:42:10;;;;;;;0.60;0.60;;;;;;;3.36;77.25;94965.84;29394;221;64009;-70
2024/03/26 01:42:41;;;;;;;0.60;0.60;;;;;;;3.35;76.58;94965.03;29395;229;63009;-70
2024/03/26 01:43:13;;;;;;;0.60;0.60;;;;;;;3.33;76.42;94961.84;29395;308;63004;-53
2024/03/26 01:43:44;;;;;;;0.70;0.70;;;;;;;3.32;76.46;94965.63;29395;206;63009;-53
2024/03/26 01:44:15;;;;;;;0.60;0.60;;;;;;;3.31;75.94;94960.56;29395;206;63004;-53
2024/03/26 01:44:47;;;;;;;0.55;0.55;;;;;;;3.30;76.24;94961.63;29395;236;63009;-53
2024/03/26 01:45:19;;;;;;;0.60;0.60;;;;;;;3.30;75.72;94962.44;29395;289;63004;-53
2024/03/26 01:45:51;;;;;;;0.60;0.60;;;;;;;3.30;76.14;94959.75;29395;215;63008;-53
2024/03/26 01:46:25;;;;;;;0.60;0.60;;;;;;;3.27;76.44;94963.03;29395;274;63005;-54
2024/03/26 01:46:57;;;;;;;0.60;0.60;;;;;;;3.28;76.36;94959.25;29395;236;63009;-53
2024/03/26 01:47:28;;;;;;;0.60;0.60;;;;;;;3.26;76.69;94956.06;29394;367;64009;-71
2024/03/26 01:48:00;;;;;;;0.60;0.60;;;;;;;3.24;76.62;94958.25;29395;221;63009;-54
2024/03/26 01:48:31;;;;;;;0.60;0.60;;;;;;;3.24;76.46;94955.56;29395;220;63005;-53
2024/03/26 01:49:04;;;;;;;0.60;0.60;;;;;;;3.23;76.93;94956.66;29395;214;63009;-53
2024/03/26 01:49:36;;;;;;;0.60;0.60;;;;;;;3.21;76.29;94958.81;29395;219;63004;-53
2024/03/26 01:50:16;;;;;;;0.60;0.60;;;;;;;3.20;76.70;94957.22;29395;222;63024;-54
2024/03/26 01:50:48;;;;;;;0.60;0.60;;;;;;;3.17;76.81;94952.44;29395;235;63004;-54
2024/03/26 01:51:20;;;;;;;0.60;0.60;;;;;;;3.13;76.92;94956.00;29395;239;63009;-54
2024/03/26 01:51:52;;;;;;;0.60;0.60;;;;;;;3.09;77.08;94961.19;29395;224;63004;-52
2024/03/26 01:52:27;;;;;;;0.60;0.60;;;;;;;3.09;77.00;94947.00;29395;227;63008;-53
2024/03/26 01:52:59;;;;;;;0.50;0.50;;;;;;;3.08;76.67;94948.09;29394;227;64008;-53
2024/03/26 01:53:31;;;;;;;0.60;0.60;;;;;;;3.09;76.87;94947.78;29394;210;64014;-54
2024/03/26 01:54:04;;;;;;;0.60;0.60;;;;;;;3.12;77.30;94949.09;29394;205;64009;-54
2024/03/26 01:54:37;;;;;;;0.60;0.60;;;;;;;3.12;76.95;94955.22;29395;206;63009;-53
2024/03/26 01:55:09;;;;;;;0.60;0.60;;;;;;;3.14;76.46;94941.53;29395;223;63005;-54
2024/03/26 01:55:42;;;;;;;0.60;0.60;;;;;;;3.14;76.18;94939.63;29395;220;63009;-54
2024/03/26 01:56:17;;;;;;;0.60;0.60;;;;;;;3.15;75.68;94938.56;29395;210;63005;-54
2024/03/26 01:56:49;;;;;;;0.60;0.60;;;;;;;3.18;75.46;94946.00;29395;230;63009;-53
2024/03/26 01:57:22;;;;;;;0.60;0.60;;;;;;;3.20;75.03;94941.16;29395;251;63004;-53
2024/03/26 01:57:54;;;;;;;0.60;0.60;;;;;;;3.22;74.88;94938.19;29395;292;63009;-53
2024/03/26 01:58:26;;;;;;;0.60;0.60;;;;;;;3.23;74.72;94934.41;29395;220;63004;-53
2024/03/26 01:58:58;;;;;;;0.60;0.60;;;;;;;3.25;74.46;94937.59;29395;220;63016;-53
2024/03/26 01:59:30;;;;;;;0.60;0.60;;;;;;;3.26;74.46;94934.63;29394;198;64008;-70
2024/03/26 02:00:03;;;;;;;0.60;0.60;;;;;;;3.27;74.70;94938.91;29395;311;63008;-53
2024/03/26 02:00:35;;;;;;;0.60;0.60;;;;;;;3.27;74.66;94933.53;29394;205;64005;-53
2024/03/26 02:01:08;;;;;;;0.60;0.60;;;;;;;3.28;74.83;94940.50;29395;219;63009;-53
2024/03/26 02:01:40;;;;;;;0.60;0.60;;;;;;;3.28;74.47;94932.44;29395;214;63005;-53
2024/03/26 02:02:11;;;;;;;0.60;0.60;;;;;;;3.31;74.56;94934.53;29395;206;63009;-53
2024/03/26 02:02:42;;;;;;;0.60;0.60;;;;;;;3.33;74.25;94929.69;29395;225;63005;-54
2024/03/26 02:03:13;;;;;;;0.60;0.60;;;;;;;3.37;73.77;94925.31;29395;239;63009;-53
2024/03/26 02:03:44;;;;;;;0.60;0.60;;;;;;;3.40;73.66;94929.31;29394;324;64009;-53
2024/03/26 02:04:16;;;;;;;0.60;0.60;;;;;;;3.42;73.95;94926.31;29395;202;63009;-53
2024/03/26 02:04:48;;;;;;;0.60;0.60;;;;;;;3.43;73.53;94928.72;29395;204;63004;-54
2024/03/26 02:05:21;;;;;;;0.60;0.60;;;;;;;3.45;73.09;94920.38;29395;269;63009;-53
2024/03/26 02:05:55;;;;;;;0.60;0.60;;;;;;;3.46;73.35;94932.69;29395;215;63004;-53
2024/03/26 02:06:27;;;;;;;0.60;0.60;;;;;;;3.46;73.85;94932.69;29395;219;63009;-54
2024/03/26 02:06:58;;;;;;;0.60;0.60;;;;;;;3.45;73.60;94926.53;29395;366;63004;-53
2024/03/26 02:07:30;;;;;;;0.60;0.60;;;;;;;3.43;73.65;94925.25;29395;203;63008;-54
2024/03/26 02:08:01;;;;;;;0.60;0.60;;;;;;;3.44;73.39;94924.16;29395;229;63005;-72
2024/03/26 02:08:33;;;;;;;0.60;0.60;;;;;;;3.43;73.46;94923.34;29394;206;64009;-53
2024/03/26 02:09:04;;;;;;;0.60;0.60;;;;;;;3.42;73.48;94915.59;29394;291;64009;-53
2024/03/26 02:09:36;;;;;;;0.60;0.60;;;;;;;3.39;73.39;94917.00;29395;322;63013;-53
2024/03/26 02:10:08;;;;;;;0.60;0.60;;;;;;;3.41;73.33;94919.38;29395;209;63005;-54
2024/03/26 02:10:39;;;;;;;0.60;0.60;;;;;;;3.43;73.13;94917.19;29395;208;63009;-53
2024/03/26 02:11:10;;;;;;;0.60;0.60;;;;;;;3.42;73.52;94910.25;29395;228;63005;-53
2024/03/26 02:11:42;;;;;;;0.60;0.60;;;;;;;3.41;73.32;94919.38;29395;207;63009;-53
2024/03/26 02:12:14;;;;;;;0.60;0.60;;;;;;;3.43;73.29;94917.19;29395;287;63004;-71
2024/03/26 02:12:45;;;;;;;0.60;0.60;;;;;;;3.44;73.06;94908.06;29395;378;63009;-54
2024/03/26 02:13:17;;;;;;;0.60;0.60;;;;;;;3.45;73.07;94909.66;29395;229;63004;-53
2024/03/26 02:13:48;;;;;;;0.60;0.60;;;;;;;3.45;74.06;94917.69;29395;203;63009;-53
2024/03/26 02:14:23;;;;;;;0.60;0.60;;;;;;;3.43;74.08;94920.69;29394;287;64009;-54
2024/03/26 02:14:54;;;;;;;0.60;0.60;;;;;;;3.42;73.60;94910.25;29395;269;63008;-53
2024/03/26 02:15:25;;;;;;;0.52;0.52;;;;;;;3.43;73.87;94911.84;29395;198;63005;-53
2024/03/26 02:15:57;;;;;;;0.60;0.60;;;;;;;3.42;73.81;94915.59;29395;219;63009;-53
2024/03/26 02:16:28;;;;;;;0.60;0.60;;;;;;;3.47;73.72;94907.44;29395;240;63005;-53
2024/03/26 02:17:03;;;;;;;0.60;0.60;;;;;;;3.50;72.69;94906.84;29395;397;63009;-53
2024/03/26 02:17:34;;;;;;;0.80;0.80;;;;;;;3.51;72.64;94897.72;29395;229;63005;-53
2024/03/26 02:18:06;;;;;;;0.60;0.60;;;;;;;3.52;72.80;94905.47;29395;218;63009;-53
2024/03/26 02:18:37;;;;;;;0.60;0.60;;;;;;;3.52;72.86;94892.06;29395;197;63005;-71
2024/03/26 02:19:09;;;;;;;0.60;0.60;;;;;;;3.51;72.75;94895.03;29395;268;63009;-54
2024/03/26 02:19:40;;;;;;;0.60;0.60;;;;;;;3.51;72.70;94895.03;29394;239;64009;-53
2024/03/26 02:20:16;;;;;;;0.60;0.60;;;;;;;3.53;72.26;94895.53;29394;213;64013;-53
2024/03/26 02:20:48;;;;;;;0.60;0.60;;;;;;;3.52;72.42;94894.75;29395;206;63004;-53
2024/03/26 02:21:19;;;;;;;0.60;0.60;;;;;;;3.53;72.21;94892.84;29395;202;63009;-53
2024/03/26 02:21:51;;;;;;;0.57;0.57;;;;;;;3.53;71.94;94896.34;29395;272;63004;-53
2024/03/26 02:22:22;;;;;;;0.60;0.60;;;;;;;3.53;72.16;94890.97;29395;204;63008;-53
2024/03/26 02:22:57;;;;;;;0.60;0.60;;;;;;;3.55;72.12;94893.34;29395;198;63005;-54
2024/03/26 02:23:28;;;;;;;0.60;0.60;;;;;;;3.54;72.44;94892.56;29395;220;63015;-54
2024/03/26 02:24:00;;;;;;;0.60;0.60;;;;;;;3.56;72.16;94892.28;29394;226;64005;-53
2024/03/26 02:24:32;;;;;;;0.60;0.60;;;;;;;3.57;72.04;94888.50;29394;209;64014;-53
2024/03/26 02:25:04;;;;;;;0.60;0.60;;;;;;;3.57;71.92;94891.19;29395;225;63009;-53
2024/03/26 02:25:35;;;;;;;0.60;0.60;;;;;;;3.58;72.04;94887.41;29395;230;63009;-53
2024/03/26 02:26:16;;;;;;;0.60;0.60;;;;;;;3.55;72.91;94893.34;29395;254;63005;-53
2024/03/26 02:26:48;;;;;;;0.70;0.70;;;;;;;3.51;73.15;94895.84;29416;197;64013;-70
2024/03/26 02:27:19;;;;;;;0.60;0.60;;;;;;;3.47;73.15;94896.72;29395;217;63004;-53
2024/03/26 02:27:50;;;;;;;0.60;0.60;;;;;;;3.46;73.75;94901.31;29395;222;63009;-53
2024/03/26 02:28:21;;;;;;;0.60;0.60;;;;;;;3.45;73.75;94909.66;29395;214;63004;-53
2024/03/26 02:28:56;;;;;;;0.60;0.60;;;;;;;3.42;73.81;94902.19;29394;224;64013;-53
2024/03/26 02:29:27;;;;;;;0.60;0.60;;;;;;;3.41;73.27;94900.59;29395;239;63011;-53
2024/03/26 02:29:58;;;;;;;0.60;0.60;;;;;;;3.43;73.32;94901.09;29395;276;63008;-53
2024/03/26 02:30:30;;;;;;;0.60;0.60;;;;;;;3.43;72.92;94901.09;29394;204;64009;-53
2024/03/26 02:31:01;;;;;;;0.60;0.60;;;;;;;3.43;72.66;94901.91;29395;209;63009;-53
2024/03/26 02:31:32;;;;;;;0.60;0.60;;;;;;;3.44;72.89;94900.03;29395;235;63005;-53
2024/03/26 02:32:04;;;;;;;0.60;0.60;;;;;;;3.44;73.78;94905.38;29395;220;63009;-53
2024/03/26 02:32:35;;;;;;;0.60;0.60;;;;;;;3.45;74.22;94909.66;29395;244;63005;-53
2024/03/26 02:33:07;;;;;;;0.60;0.60;;;;;;;3.44;73.95;94908.06;29395;297;63009;-53
2024/03/26 02:33:38;;;;;;;0.60;0.60;;;;;;;3.44;73.97;94905.38;29395;230;63005;-54
2024/03/26 02:34:09;;;;;;;0.60;0.60;;;;;;;3.43;73.61;94899.22;29395;224;63009;-53